Time;durP1;ratioP1;P1;durP2;ratioP2;P2;SDS_P1;SDS_P2;PMS_P1;PMS_P2;Temp;Humidity;BMP_temperature;BMP_pressure;BME280_temperature;BME280_humidity;BME280_pressure;Samples;Min_cycle;Max_cycle;Signal;HPM_P1;HPM_P2
2022/12/27 00:00:43;;;;;;;10.38;6.35;;;;;;;;;;12839164;19;20335;-66
2022/12/27 00:05:01;;;;;;;15.53;7.53;;;;;;;;;;12840846;19;20329;-66
2022/12/27 00:09:18;;;;;;;12.25;6.97;;;;;;;;;;12837197;19;20421;-66
2022/12/27 00:13:35;;;;;;;12.52;7.40;;;;;;;;;;12839205;19;20306;-66
2022/12/27 00:17:52;;;;;;;14.70;7.93;;;;;;;;;;12837128;19;20025;-67
2022/12/27 00:22:09;;;;;;;12.88;7.30;;;;;;;;;;12838325;19;20216;-67
2022/12/27 00:26:32;;;;;;;15.57;9.00;;;;;;;;;;12835518;19;20007;-69
2022/12/27 00:30:54;;;;;;;13.13;7.85;;;;;;;;;;12838840;19;20014;-66
2022/12/27 00:35:11;;;;;;;12.80;7.60;;;;;;;;;;12838478;19;20030;-66
2022/12/27 00:39:28;;;;;;;12.18;7.05;;;;;;;;;;12837877;19;20434;-66
2022/12/27 00:43:46;;;;;;;11.48;6.82;;;;;;;;;;12836975;19;20359;-66
2022/12/27 00:48:03;;;;;;;9.82;5.47;;;;;;;;;;12834791;19;20627;-66
2022/12/27 00:52:21;;;;;;;;;;;;;;;;;;12837295;19;20498;-67
2022/12/27 00:56:38;;;;;;;7.80;5.05;;;;;;;;;;12836242;19;20328;-66
2022/12/27 01:01:04;;;;;;;9.18;4.68;;;;;;;;;;12835568;19;20530;-67
2022/12/27 01:05:22;;;;;;;8.23;4.60;;;;;;;;;;12836698;19;20303;-66
2022/12/27 01:09:38;;;;;;;6.00;4.30;;;;;;;;;;12836745;19;20716;-67
2022/12/27 01:14:00;;;;;;;10.20;5.40;;;;;;;;;;12836793;19;20337;-67
2022/12/27 01:18:17;;;;;;;7.28;3.83;;;;;;;;;;12836815;19;20439;-67
2022/12/27 01:22:34;;;;;;;6.50;3.88;;;;;;;;;;12835338;19;20331;-66
2022/12/27 01:26:51;;;;;;;7.28;4.22;;;;;;;;;;12836047;19;20449;-66
2022/12/27 01:31:13;;;;;;;7.37;4.23;;;;;;;;;;12835459;19;20014;-66
2022/12/27 01:35:30;;;;;;;8.05;4.40;;;;;;;;;;12834565;19;20413;-66
2022/12/27 01:39:47;;;;;;;7.95;3.85;;;;;;;;;;12835027;19;20498;-66
2022/12/27 01:44:50;;;;;;;6.22;4.15;;;;;;;;;;12833368;19;20430;-67
2022/12/27 01:49:10;;;;;;;5.03;3.47;;;;;;;;;;12833220;19;20311;-67
2022/12/27 01:53:30;;;;;;;6.03;2.53;;;;;;;;;;12832896;19;20441;-67
2022/12/27 01:57:47;;;;;;;9.52;3.83;;;;;;;;;;12834016;19;20010;-67
2022/12/27 02:02:05;;;;;;;7.10;4.45;;;;;;;;;;12831849;19;20429;-66
2022/12/27 02:06:22;;;;;;;10.60;4.38;;;;;;;;;;12833472;19;20043;-66
2022/12/27 02:10:40;;;;;;;6.43;3.92;;;;;;;;;;12843441;19;20341;-66
2022/12/27 02:14:57;;;;;;;6.43;3.67;;;;;;;;;;12843457;19;20284;-68
2022/12/27 02:19:41;;;;;;;7.78;4.13;;;;;;;;;;12845530;19;20006;-68
2022/12/27 02:24:38;;;;;;;6.63;3.83;;;;;;;;;;12843187;19;20500;-69
2022/12/27 02:29:01;;;;;;;6.55;3.97;;;;;;;;;;12843032;19;20320;-67
2022/12/27 02:33:21;;;;;;;7.63;3.35;;;;;;;;;;12843946;19;20431;-67
2022/12/27 02:37:46;;;;;;;5.78;3.45;;;;;;;;;;12842505;19;20321;-66
2022/12/27 03:06:47;;;;;;;5.15;3.40;;;;;;;;;;12842378;19;20304;-66
2022/12/27 03:16:23;;;;;;;4.68;2.80;;;;;;;;;;12839157;19;20533;-68
2022/12/27 03:25:28;;;;;;;3.38;2.55;;;;;;;;;;12838668;19;20336;-68
2022/12/27 03:34:30;;;;;;;3.25;1.80;;;;;;;;;;12838671;19;20047;-67
2022/12/27 03:38:52;;;;;;;1.35;1.13;;;;;;;;;;12839618;19;20434;-67
2022/12/27 03:43:14;;;;;;;1.40;1.02;;;;;;;;;;12837629;19;20007;-67
2022/12/27 03:47:54;;;;;;;3.50;1.23;;;;;;;;;;12840012;19;20455;-68
2022/12/27 03:52:21;;;;;;;2.08;1.05;;;;;;;;;;12834819;19;20292;-67
2022/12/27 03:56:41;;;;;;;1.87;1.07;;;;;;;;;;12838855;19;20528;-68
2022/12/27 04:00:58;;;;;;;1.50;1.13;;;;;;;;;;12838989;19;20446;-67
2022/12/27 04:05:15;;;;;;;1.73;0.70;;;;;;;;;;12836834;19;20450;-67
2022/12/27 04:37:11;;;;;;;1.30;0.63;;;;;;;;;;12836958;19;20011;-68
2022/12/27 04:55:19;;;;;;;2.58;1.13;;;;;;;;;;12836598;19;20018;-67
2022/12/27 05:04:11;;;;;;;3.97;0.90;;;;;;;;;;12834577;19;20312;-67
2022/12/27 05:17:40;;;;;;;1.13;0.70;;;;;;;;;;12835808;19;20031;-67
2022/12/27 05:26:34;;;;;;;1.10;0.55;;;;;;;;;;12833453;19;20321;-68
2022/12/27 05:30:50;;;;;;;0.75;0.55;;;;;;;;;;12834224;19;20014;-67
2022/12/27 05:35:07;;;;;;;0.75;0.65;;;;;;;;;;12833896;19;20430;-68
2022/12/27 05:39:24;;;;;;;0.20;0.20;;;;;;;;;;12834373;19;20352;-67
2022/12/27 05:43:41;;;;;;;5.65;0.57;;;;;;;;;;12839693;19;20010;-66
2022/12/27 05:47:58;;;;;;;0.60;0.40;;;;;;;;;;12847219;19;20018;-68
2022/12/27 05:52:15;;;;;;;5.68;0.85;;;;;;;;;;12844632;19;20495;-68
2022/12/27 05:56:36;;;;;;;0.70;0.30;;;;;;;;;;12846858;19;20470;-67
2022/12/27 06:00:53;;;;;;;1.48;0.52;;;;;;;;;;12842839;19;20438;-68
2022/12/27 06:05:10;;;;;;;1.85;0.68;;;;;;;;;;12842512;19;20021;-67
2022/12/27 06:09:26;;;;;;;0.90;0.30;;;;;;;;;;12844432;19;20044;-67
2022/12/27 06:13:48;;;;;;;3.42;0.73;;;;;;;;;;12845790;19;20426;-66
2022/12/27 06:18:05;;;;;;;2.40;0.80;;;;;;;;;;12844838;19;20010;-69
2022/12/27 06:22:22;;;;;;;1.77;1.13;;;;;;;;;;12845194;19;20312;-66
2022/12/27 06:26:41;;;;;;;6.70;1.93;;;;;;;;;;12842877;19;20312;-66
2022/12/27 06:30:59;;;;;;;2.17;1.10;;;;;;;;;;12844997;19;20634;-67
2022/12/27 06:35:16;;;;;;;4.75;1.17;;;;;;;;;;12841937;19;20218;-66
2022/12/27 06:39:33;;;;;;;3.08;1.10;;;;;;;;;;12844850;19;20536;-67
2022/12/27 06:43:54;;;;;;;2.22;1.02;;;;;;;;;;12842356;19;20455;-66
2022/12/27 06:48:11;;;;;;;5.88;2.10;;;;;;;;;;12842623;19;20022;-66
2022/12/27 06:52:27;;;;;;;2.42;1.17;;;;;;;;;;12844505;19;20435;-67
2022/12/27 06:56:44;;;;;;;3.53;1.02;;;;;;;;;;12842490;19;20007;-66
2022/12/27 07:01:14;;;;;;;2.83;1.00;;;;;;;;;;12842072;19;20307;-66
2022/12/27 07:05:35;;;;;;;4.32;1.20;;;;;;;;;;12842446;19;20453;-67
2022/12/27 07:09:52;;;;;;;5.60;1.40;;;;;;;;;;12837919;19;20011;-66
2022/12/27 07:14:09;;;;;;;8.77;1.90;;;;;;;;;;12841040;19;20379;-66
2022/12/27 07:18:26;;;;;;;7.00;1.77;;;;;;;;;;12841213;19;20325;-67
2022/12/27 07:22:43;;;;;;;5.60;2.60;;;;;;;;;;12842034;19;20346;-66
2022/12/27 07:27:01;;;;;;;5.25;1.52;;;;;;;;;;12841637;19;20465;-68
2022/12/27 07:31:21;;;;;;;7.00;2.70;;;;;;;;;;12840936;19;20024;-68
2022/12/27 07:35:38;;;;;;;6.80;1.50;;;;;;;;;;12841194;19;20044;-66
2022/12/27 07:40:00;;;;;;;5.15;0.98;;;;;;;;;;12841288;19;20010;-66
2022/12/27 07:44:17;;;;;;;6.38;1.55;;;;;;;;;;12839809;19;20035;-66
2022/12/27 07:48:35;;;;;;;3.60;1.58;;;;;;;;;;12841688;19;20434;-67
2022/12/27 07:52:52;;;;;;;5.63;2.10;;;;;;;;;;12840730;19;20332;-66
2022/12/27 07:57:09;;;;;;;5.63;1.20;;;;;;;;;;12840174;19;20300;-66
2022/12/27 08:01:28;;;;;;;7.35;1.50;;;;;;;;;;12839753;19;20453;-66
2022/12/27 08:05:51;;;;;;;6.22;1.42;;;;;;;;;;12835727;19;20352;-66
2022/12/27 08:10:08;;;;;;;2.80;1.08;;;;;;;;;;12839071;19;20018;-66
2022/12/27 08:14:25;;;;;;;5.25;1.48;;;;;;;;;;12839960;19;20414;-67
2022/12/27 08:18:42;;;;;;;3.88;1.20;;;;;;;;;;12843039;19;20292;-66
2022/12/27 08:22:59;;;;;;;7.05;1.98;;;;;;;;;;12838933;19;20043;-67
2022/12/27 08:27:21;;;;;;;5.13;1.70;;;;;;;;;;12838585;19;20315;-66
2022/12/27 08:31:38;;;;;;;10.25;3.95;;;;;;;;;;12839083;19;20368;-66
2022/12/27 08:35:57;;;;;;;8.43;3.22;;;;;;;;;;12838931;19;20454;-68
2022/12/27 08:40:14;;;;;;;4.28;1.80;;;;;;;;;;12836873;19;20451;-67
2022/12/27 08:44:30;;;;;;;5.22;1.75;;;;;;;;;;12837133;19;20339;-67
2022/12/27 08:52:41;;;;;;;5.43;1.52;;;;;;;;;;12901539;19;20441;-67
2022/12/27 08:56:58;;;;;;;5.38;1.90;;;;;;;;;;12898370;19;20434;-68
2022/12/27 09:01:15;;;;;;;5.93;2.50;;;;;;;;;;12897461;19;20034;-69
2022/12/27 09:05:34;;;;;;;8.70;2.10;;;;;;;;;;12899460;19;20553;-67
2022/12/27 09:09:57;;;;;;;6.75;1.92;;;;;;;;;;12897220;19;20006;-67
2022/12/27 09:14:14;;;;;;;3.97;1.30;;;;;;;;;;12896974;19;20493;-67
2022/12/27 09:18:31;;;;;;;6.32;1.88;;;;;;;;;;12898075;19;20363;-67
2022/12/27 09:22:48;;;;;;;5.80;1.92;;;;;;;;;;12897730;19;20011;-68
2022/12/27 09:27:05;;;;;;;5.37;1.57;;;;;;;;;;12896259;19;20433;-67
2022/12/27 09:31:22;;;;;;;5.88;1.88;;;;;;;;;;12896538;19;20545;-69
2022/12/27 09:35:38;;;;;;;6.05;1.90;;;;;;;;;;12896496;19;20739;-67
2022/12/27 09:39:55;;;;;;;4.00;1.63;;;;;;;;;;12896353;19;20453;-67
2022/12/27 09:44:15;;;;;;;7.72;3.00;;;;;;;;;;12895841;19;20335;-64
2022/12/27 09:48:34;;;;;;;15.10;5.88;;;;;;;;;;12895337;19;20462;-67
2022/12/27 09:52:51;;;;;;;4.57;1.58;;;;;;;;;;12897386;19;20413;-69
2022/12/27 09:57:16;;;;;;;13.15;3.50;;;;;;;;;;12895117;19;20339;-66
2022/12/27 10:01:36;;;;;;;;;;;;;;;;;;12875643;19;20380;-67
2022/12/27 10:06:10;;;;;;;5.75;2.22;;;;;;;;;;12843562;19;19925;-69
2022/12/27 10:10:31;;;;;;;9.95;1.70;;;;;;;;;;12844505;19;20457;-67
2022/12/27 10:14:48;;;;;;;5.53;2.20;;;;;;;;;;12845810;19;20445;-67
2022/12/27 10:19:11;;;;;;;6.18;1.60;;;;;;;;;;12843831;19;20290;-68
2022/12/27 10:23:29;;;;;;;4.13;1.63;;;;;;;;;;12845057;19;20418;-67
2022/12/27 10:27:46;;;;;;;4.72;1.58;;;;;;;;;;12845309;19;20458;-67
2022/12/27 10:32:03;;;;;;;3.03;1.05;;;;;;;;;;12840780;19;20315;-67
2022/12/27 10:36:25;;;;;;;2.35;0.93;;;;;;;;;;12844076;19;20495;-68
2022/12/27 10:41:05;;;;;;;9.23;1.80;;;;;;;;;;12845259;19;20333;-66
2022/12/27 10:45:33;;;;;;;5.18;1.75;;;;;;;;;;12843117;19;20083;-66
2022/12/27 10:50:08;;;;;;;13.60;4.60;;;;;;;;;;12843155;19;20118;-66
2022/12/27 10:54:26;;;;;;;25.25;8.60;;;;;;;;;;12843028;19;20062;-66
2022/12/27 10:58:47;;;;;;;11.93;3.53;;;;;;;;;;12843280;19;20371;-67
2022/12/27 11:03:17;;;;;;;5.32;1.48;;;;;;;;;;12841896;19;20485;-66
2022/12/27 11:07:35;;;;;;;26.63;9.25;;;;;;;;;;12845300;19;20049;-67
2022/12/27 11:12:15;;;;;;;25.85;8.65;;;;;;;;;;12840636;19;20430;-69
2022/12/27 11:16:34;;;;;;;4.15;1.40;;;;;;;;;;12841385;19;20346;-66
2022/12/27 11:20:53;;;;;;;5.85;2.00;;;;;;;;;;12841622;19;20310;-66
2022/12/27 11:25:09;;;;;;;;;;;;;;;;;;12841096;19;20299;-66
2022/12/27 11:29:27;;;;;;;6.03;2.20;;;;;;;;;;12840781;19;19915;-67
2022/12/27 11:33:47;;;;;;;6.55;1.70;;;;;;;;;;12841323;19;20426;-66
2022/12/27 11:38:04;;;;;;;3.72;1.55;;;;;;;;;;12839592;19;20330;-65
2022/12/27 11:42:20;;;;;;;4.60;1.20;;;;;;;;;;12841651;19;20311;-66
2022/12/27 11:46:40;;;;;;;3.67;1.60;;;;;;;;;;12839747;19;20461;-68
2022/12/27 11:51:16;;;;;;;5.13;1.83;;;;;;;;;;12839207;19;20019;-67
2022/12/27 11:55:35;;;;;;;5.72;1.58;;;;;;;;;;12839907;19;20442;-66
2022/12/27 11:59:52;;;;;;;2.40;1.05;;;;;;;;;;12839636;19;20466;-66
2022/12/27 12:04:11;;;;;;;2.65;1.40;;;;;;;;;;12838600;19;20418;-66
2022/12/27 12:08:28;;;;;;;4.15;1.88;;;;;;;;;;12841824;19;20010;-66
2022/12/27 12:12:45;;;;;;;6.65;2.00;;;;;;;;;;12839185;19;20306;-66
2022/12/27 12:17:02;;;;;;;5.25;2.70;;;;;;;;;;12838202;19;20014;-67
2022/12/27 12:21:19;;;;;;;5.78;2.25;;;;;;;;;;12837544;19;20010;-67
2022/12/27 12:25:48;;;;;;;4.63;2.22;;;;;;;;;;12836833;19;20502;-65
2022/12/27 12:30:34;;;;;;;6.60;2.30;;;;;;;;;;12836358;19;20490;-65
2022/12/27 12:34:54;;;;;;;4.03;1.75;;;;;;;;;;12836869;19;20295;-65
2022/12/27 12:39:11;;;;;;;4.80;1.58;;;;;;;;;;12836601;19;20075;-68
2022/12/27 12:43:55;;;;;;;5.68;1.90;;;;;;;;;;12837509;19;20011;-65
2022/12/27 12:48:26;;;;;;;5.68;1.45;;;;;;;;;;12834401;19;20430;-66
2022/12/27 12:53:00;;;;;;;6.03;2.10;;;;;;;;;;12837630;19;20323;-66
2022/12/27 12:57:22;;;;;;;5.65;2.67;;;;;;;;;;12835486;19;20320;-65
2022/12/27 13:02:00;;;;;;;9.05;3.20;;;;;;;;;;12837407;19;20418;-65
2022/12/27 13:06:20;;;;;;;5.38;1.70;;;;;;;;;;12835409;19;20372;-66
2022/12/27 13:10:49;;;;;;;4.50;2.00;;;;;;;;;;12835660;19;20034;-66
2022/12/27 13:15:19;;;;;;;3.58;1.77;;;;;;;;;;12835007;19;20473;-66
2022/12/27 13:19:36;;;;;;;5.03;2.25;;;;;;;;;;12835219;19;20002;-65
2022/12/27 13:23:58;;;;;;;11.13;2.53;;;;;;;;;;12836566;19;20426;-65
2022/12/27 13:28:26;;;;;;;5.25;2.13;;;;;;;;;;12833927;19;20355;-67
2022/12/27 13:33:07;;;;;;;6.95;2.20;;;;;;;;;;12833936;19;20457;-65
2022/12/27 13:37:33;;;;;;;7.63;2.60;;;;;;;;;;12841177;19;20480;-65
2022/12/27 13:41:53;;;;;;;4.50;2.00;;;;;;;;;;12847647;19;20318;-65
2022/12/27 13:46:12;;;;;;;8.45;2.45;;;;;;;;;;12845007;19;20457;-67
2022/12/27 13:50:48;;;;;;;7.13;2.42;;;;;;;;;;12845181;19;20785;-66
2022/12/27 13:55:14;;;;;;;9.30;3.25;;;;;;;;;;12845783;19;20366;-67
2022/12/27 13:59:38;;;;;;;12.10;2.30;;;;;;;;;;12845727;19;20360;-67
2022/12/27 14:03:57;;;;;;;6.00;2.20;;;;;;;;;;12846674;19;20010;-65
2022/12/27 14:08:17;;;;;;;9.13;2.90;;;;;;;;;;12844780;19;20046;-65
2022/12/27 14:12:46;;;;;;;15.73;5.82;;;;;;;;;;12843999;19;20018;-65
2022/12/27 14:17:24;;;;;;;6.22;2.33;;;;;;;;;;12843964;19;20461;-65
2022/12/27 14:22:00;;;;;;;16.38;7.10;;;;;;;;;;12844644;19;20006;-65
2022/12/27 14:26:36;;;;;;;12.23;5.97;;;;;;;;;;12843567;19;20517;-65
2022/12/27 14:31:01;;;;;;;12.98;5.07;;;;;;;;;;12844147;19;20457;-65
2022/12/27 14:35:41;;;;;;;12.13;6.20;;;;;;;;;;12844181;19;20014;-65
2022/12/27 14:39:58;;;;;;;7.60;3.47;;;;;;;;;;12844630;19;20469;-65
2022/12/27 14:44:34;;;;;;;6.47;3.35;;;;;;;;;;12842709;19;20501;-66
2022/12/27 14:49:09;;;;;;;7.85;3.80;;;;;;;;;;12843641;19;20473;-66
2022/12/27 14:53:32;;;;;;;6.07;3.42;;;;;;;;;;12841607;19;20441;-64
2022/12/27 14:58:08;;;;;;;6.97;3.13;;;;;;;;;;12842830;19;20015;-65
2022/12/27 15:02:34;;;;;;;7.20;2.90;;;;;;;;;;12842407;19;20046;-66
2022/12/27 15:06:57;;;;;;;5.45;2.58;;;;;;;;;;12842509;19;20346;-65
2022/12/27 15:11:28;;;;;;;7.10;3.25;;;;;;;;;;12840751;19;20444;-65
2022/12/27 15:15:57;;;;;;;9.32;3.60;;;;;;;;;;12842119;19;20335;-64
2022/12/27 15:20:40;;;;;;;7.63;2.83;;;;;;;;;;12840269;19;20387;-66
2022/12/27 15:25:14;;;;;;;7.82;2.38;;;;;;;;;;12840383;19;20441;-66
2022/12/27 15:29:31;;;;;;;5.65;2.70;;;;;;;;;;12840718;19;20425;-64
2022/12/27 15:34:08;;;;;;;5.03;2.60;;;;;;;;;;12840363;19;20453;-64
2022/12/27 15:42:26;;;;;;;7.35;2.55;;;;;;;;;;12897008;19;20602;-67
2022/12/27 15:47:39;;;;;;;6.55;2.65;;;;;;;;;;12893799;19;20010;-67
2022/12/27 15:52:23;;;;;;;8.20;2.88;;;;;;;;;;12894842;19;20021;-66
2022/12/27 15:56:56;;;;;;;8.70;4.28;;;;;;;;;;12897141;19;20017;-70
2022/12/27 16:01:16;;;;;;;8.63;4.22;;;;;;;;;;12896584;19;20478;-66
2022/12/27 16:05:48;;;;;;;8.70;4.57;;;;;;;;;;12898383;19;20638;-66
2022/12/27 16:10:30;;;;;;;16.38;6.78;;;;;;;;;;12896902;19;20473;-66
2022/12/27 16:14:48;;;;;;;12.18;5.90;;;;;;;;;;12896880;19;20498;-66
2022/12/27 16:19:37;;;;;;;12.53;5.37;;;;;;;;;;12895885;19;20348;-67
2022/12/27 16:24:11;;;;;;;10.48;4.40;;;;;;;;;;12896698;19;20698;-68
2022/12/27 16:28:31;;;;;;;7.97;3.47;;;;;;;;;;12895666;19;20426;-67
2022/12/27 16:32:49;;;;;;;7.30;3.33;;;;;;;;;;12896434;19;20444;-66
2022/12/27 16:37:23;;;;;;;9.18;3.92;;;;;;;;;;12893334;19;20030;-67
2022/12/27 16:42:02;;;;;;;10.80;4.38;;;;;;;;;;12892008;19;20375;-66
2022/12/27 16:46:26;;;;;;;10.05;3.65;;;;;;;;;;12893464;19;20015;-66
2022/12/27 16:51:20;;;;;;;7.47;3.60;;;;;;;;;;12875260;19;20386;-66
2022/12/27 16:56:02;;;;;;;12.57;4.05;;;;;;;;;;12843736;19;20039;-66
2022/12/27 17:00:41;;;;;;;9.23;3.50;;;;;;;;;;12845013;19;20328;-67
2022/12/27 17:04:59;;;;;;;18.00;6.60;;;;;;;;;;12844849;19;20326;-66
2022/12/27 17:09:19;;;;;;;;;;;;;;;;;;12844438;19;20363;-67
2022/12/27 17:13:46;;;;;;;11.52;5.15;;;;;;;;;;12844267;19;20317;-65
2022/12/27 17:18:18;;;;;;;6.07;2.75;;;;;;;;;;12842438;19;20015;-66
2022/12/27 17:22:37;;;;;;;9.43;4.50;;;;;;;;;;12842029;19;20360;-66
2022/12/27 17:27:25;;;;;;;5.88;3.35;;;;;;;;;;12841480;19;20430;-67
2022/12/27 17:32:20;;;;;;;9.60;3.88;;;;;;;;;;12840340;19;20474;-66
2022/12/27 17:36:57;;;;;;;10.50;4.68;;;;;;;;;;12842485;19;20035;-66
2022/12/27 17:46:43;;;;;;;9.55;4.63;;;;;;;;;;12839888;19;20414;-66
2022/12/27 17:51:09;;;;;;;20.58;7.65;;;;;;;;;;12840879;19;20010;-67
2022/12/27 18:00:05;;;;;;;7.57;4.00;;;;;;;;;;12840387;19;20499;-66
2022/12/27 18:04:37;;;;;;;13.75;5.32;;;;;;;;;;12839127;19;20800;-66
2022/12/27 18:08:54;;;;;;;13.48;5.28;;;;;;;;;;12841291;19;20010;-66
2022/12/27 18:13:18;;;;;;;17.00;6.03;;;;;;;;;;12838189;19;20085;-66
2022/12/27 18:17:49;;;;;;;15.85;7.22;;;;;;;;;;12834239;19;20313;-66
2022/12/27 18:22:18;;;;;;;44.03;24.50;;;;;;;;;;12836828;19;20419;-66
2022/12/27 18:26:39;;;;;;;43.08;22.90;;;;;;;;;;12838844;19;20025;-67
2022/12/27 18:31:39;;;;;;;44.55;20.65;;;;;;;;;;12839823;19;20474;-67
2022/12/27 18:36:04;;;;;;;25.58;10.00;;;;;;;;;;12834061;19;20426;-66
2022/12/27 18:40:23;;;;;;;27.90;10.75;;;;;;;;;;12837849;19;20422;-67
2022/12/27 18:44:56;;;;;;;25.98;11.93;;;;;;;;;;12839692;19;20035;-67
2022/12/27 18:49:29;;;;;;;24.50;10.63;;;;;;;;;;12836497;19;20494;-67
2022/12/27 18:53:46;;;;;;;25.88;11.52;;;;;;;;;;12837124;19;20014;-66
2022/12/27 18:58:17;;;;;;;14.82;7.45;;;;;;;;;;12838000;19;20437;-68
2022/12/27 19:02:36;;;;;;;13.95;6.50;;;;;;;;;;12840554;19;20288;-66
2022/12/27 19:07:11;;;;;;;17.97;5.87;;;;;;;;;;12838423;19;20458;-67
2022/12/27 19:11:28;;;;;;;16.33;6.30;;;;;;;;;;8385610;19;10001845;-67
2022/12/27 19:15:53;;;;;;;22.15;8.45;;;;;;;;;;12837285;19;20018;-67
2022/12/27 19:20:24;;;;;;;15.32;7.07;;;;;;;;;;12834042;19;20351;-66
2022/12/27 19:24:41;;;;;;;15.13;7.55;;;;;;;;;;12838721;19;20427;-66
2022/12/27 19:29:12;;;;;;;25.85;11.88;;;;;;;;;;12837317;19;20296;-66
2022/12/27 19:33:33;;;;;;;16.55;7.70;;;;;;;;;;12836049;19;20039;-66
2022/12/27 19:37:50;;;;;;;25.52;12.27;;;;;;;;;;12836888;19;20039;-66
2022/12/27 19:42:17;;;;;;;33.50;15.25;;;;;;;;;;12835516;19;20525;-66
2022/12/27 19:46:34;;;;;;;44.08;17.70;;;;;;;;;;12835649;19;20299;-66
2022/12/27 19:50:53;;;;;;;23.65;10.65;;;;;;;;;;12836188;19;20383;-65
2022/12/27 19:55:17;;;;;;;30.08;12.88;;;;;;;;;;12832984;19;20333;-65
2022/12/27 19:59:34;;;;;;;26.83;12.48;;;;;;;;;;12835080;19;20446;-68
2022/12/27 20:03:51;;;;;;;28.35;13.10;;;;;;;;;;12836485;19;20454;-67
2022/12/27 20:08:39;;;;;;;28.40;12.10;;;;;;;;;;12834239;19;20323;-66
2022/12/27 20:12:56;;;;;;;35.47;16.83;;;;;;;;;;12834258;19;20335;-67
2022/12/27 20:17:13;;;;;;;47.70;19.83;;;;;;;;;;12833717;19;20365;-66
2022/12/27 20:21:30;;;;;;;48.58;18.73;;;;;;;;;;12834361;19;20434;-66
2022/12/27 20:25:48;;;;;;;42.90;18.85;;;;;;;;;;12837619;19;20458;-66
2022/12/27 20:30:06;;;;;;;58.20;22.63;;;;;;;;;;12845303;19;20291;-67
2022/12/27 20:34:23;;;;;;;44.72;19.58;;;;;;;;;;12847193;19;20442;-67
2022/12/27 20:38:40;;;;;;;77.63;28.33;;;;;;;;;;12845176;19;20422;-66
2022/12/27 20:42:57;;;;;;;33.58;15.55;;;;;;;;;;12846247;19;20315;-67
2022/12/27 20:47:15;;;;;;;45.90;18.90;;;;;;;;;;12847221;19;20430;-67
2022/12/27 20:51:32;;;;;;;46.35;21.15;;;;;;;;;;12848463;19;20316;-66
2022/12/27 20:55:57;;;;;;;33.45;15.50;;;;;;;;;;12845887;19;20808;-66
2022/12/27 21:00:15;;;;;;;40.25;17.73;;;;;;;;;;12843775;19;20465;-66
2022/12/27 21:04:33;;;;;;;46.22;22.40;;;;;;;;;;12845073;19;20016;-66
2022/12/27 21:08:50;;;;;;;33.53;17.40;;;;;;;;;;12845514;19;20430;-65
2022/12/27 21:13:13;;;;;;;34.75;15.15;;;;;;;;;;12843981;19;20491;-67
2022/12/27 21:17:30;;;;;;;31.00;13.30;;;;;;;;;;12844094;19;20325;-67
2022/12/27 21:21:47;;;;;;;32.28;13.68;;;;;;;;;;12844360;19;20312;-66
2022/12/27 21:26:11;;;;;;;28.85;13.38;;;;;;;;;;12843127;19;20491;-67
2022/12/27 21:30:28;;;;;;;44.95;18.05;;;;;;;;;;12843563;19;20008;-66
2022/12/27 21:34:45;;;;;;;32.97;13.15;;;;;;;;;;12841722;19;20376;-65
2022/12/27 21:39:04;;;;;;;31.60;13.93;;;;;;;;;;12839786;19;20047;-66
2022/12/27 21:43:21;;;;;;;30.35;11.10;;;;;;;;;;12842341;19;20330;-67
2022/12/27 21:47:38;;;;;;;27.15;11.15;;;;;;;;;;12842351;19;20086;-66
2022/12/27 21:51:55;;;;;;;29.60;11.30;;;;;;;;;;12841113;19;20436;-67
2022/12/27 21:56:15;;;;;;;25.50;10.20;;;;;;;;;;12841081;19;20007;-66
2022/12/27 22:00:32;;;;;;;28.67;11.48;;;;;;;;;;12841481;19;20449;-67
2022/12/27 22:04:49;;;;;;;31.98;13.60;;;;;;;;;;12842381;19;20344;-66
2022/12/27 22:09:09;;;;;;;27.83;12.13;;;;;;;;;;12839766;19;20454;-66
2022/12/27 22:13:26;;;;;;;25.60;9.63;;;;;;;;;;12841457;19;20018;-67
2022/12/27 22:17:43;;;;;;;22.33;8.95;;;;;;;;;;12840785;19;20434;-66
2022/12/27 22:22:00;;;;;;;25.40;9.95;;;;;;;;;;12841167;19;20470;-67
2022/12/27 22:26:21;;;;;;;26.52;10.73;;;;;;;;;;12840221;19;20454;-66
2022/12/27 22:30:39;;;;;;;19.63;9.02;;;;;;;;;;12842630;19;20455;-66
2022/12/27 22:34:56;;;;;;;29.35;9.82;;;;;;;;;;12840331;19;20325;-67
2022/12/27 22:39:13;;;;;;;32.03;11.18;;;;;;;;;;12837689;19;20446;-66
2022/12/27 22:43:30;;;;;;;21.67;8.80;;;;;;;;;;12839609;19;20426;-68
2022/12/27 22:47:47;;;;;;;28.70;10.70;;;;;;;;;;12837929;19;20419;-66
2022/12/27 22:52:04;;;;;;;26.70;10.68;;;;;;;;;;12836745;19;20025;-68
2022/12/27 22:56:25;;;;;;;32.83;11.73;;;;;;;;;;12838595;19;20347;-68
2022/12/27 23:00:42;;;;;;;36.72;12.15;;;;;;;;;;12838615;19;20352;-66
2022/12/27 23:05:01;;;;;;;29.88;10.38;;;;;;;;;;12838678;19;20307;-66
2022/12/27 23:09:18;;;;;;;;;;;;;;;;;;12838283;19;20442;-66
2022/12/27 23:13:35;;;;;;;21.10;9.48;;;;;;;;;;12838699;19;20306;-65
2022/12/27 23:17:52;;;;;;;17.67;7.63;;;;;;;;;;12838987;19;20438;-67
2022/12/27 23:22:09;;;;;;;18.98;7.68;;;;;;;;;;12836923;19;20007;-67
2022/12/27 23:26:27;;;;;;;16.70;7.50;;;;;;;;;;12837572;19;20430;-67
2022/12/27 23:30:44;;;;;;;19.92;8.45;;;;;;;;;;12836974;19;20497;-66
2022/12/27 23:35:01;;;;;;;23.83;10.02;;;;;;;;;;12837046;19;20438;-63
2022/12/27 23:39:19;;;;;;;22.52;9.30;;;;;;;;;;12834926;19;20441;-65
2022/12/27 23:43:38;;;;;;;26.23;10.63;;;;;;;;;;12836777;19;20400;-67
2022/12/27 23:48:12;;;;;;;26.35;10.82;;;;;;;;;;12838595;19;20700;-66
2022/12/27 23:52:29;;;;;;;10.85;6.22;;;;;;;;;;12836818;19;20321;-66
2022/12/27 23:56:46;;;;;;;16.23;6.78;;;;;;;;;;12836254;19;20019;-65
